sensor_id;sensor_type;location;lat;lon;timestamp;pressure;altitude;pressure_sealevel;temperature;humidity
10832;BME280;5469;48.574;8.768;2023-01-31T00:00:35;95731.41;;;2.31;87.10
10832;BME280;5469;48.574;8.768;2023-01-31T00:03:10;95738.47;;;2.24;86.71
10832;BME280;5469;48.574;8.768;2023-01-31T00:05:46;95732.81;;;2.27;86.97
10832;BME280;5469;48.574;8.768;2023-01-31T00:08:22;95723.19;;;2.34;86.59
10832;BME280;5469;48.574;8.768;2023-01-31T00:11:00;95734.78;;;2.11;86.96
10832;BME280;5469;48.574;8.768;2023-01-31T00:13:36;95727.16;;;2.16;86.91
10832;BME280;5469;48.574;8.768;2023-01-31T00:16:13;95724.34;;;2.25;86.65
10832;BME280;5469;48.574;8.768;2023-01-31T00:18:49;95731.59;;;2.16;87.00
10832;BME280;5469;48.574;8.768;2023-01-31T00:21:29;95728.97;;;2.16;87.00
10832;BME280;5469;48.574;8.768;2023-01-31T00:24:05;95719.28;;;2.03;87.58
10832;BME280;5469;48.574;8.768;2023-01-31T00:26:40;95713.00;;;1.91;87.60
10832;BME280;5469;48.574;8.768;2023-01-31T00:29:15;95709.00;;;1.95;87.05
10832;BME280;5469;48.574;8.768;2023-01-31T00:31:52;95720.28;;;2.02;86.89
10832;BME280;5469;48.574;8.768;2023-01-31T00:34:28;95704.13;;;1.85;86.94
10832;BME280;5469;48.574;8.768;2023-01-31T00:37:04;95705.38;;;1.96;86.83
10832;BME280;5469;48.574;8.768;2023-01-31T00:39:39;95716.19;;;1.86;86.89
10832;BME280;5469;48.574;8.768;2023-01-31T00:42:14;95716.19;;;1.86;86.11
10832;BME280;5469;48.574;8.768;2023-01-31T00:44:49;95710.97;;;1.80;85.93
10832;BME280;5469;48.574;8.768;2023-01-31T00:47:25;95713.34;;;1.81;86.34
10832;BME280;5469;48.574;8.768;2023-01-31T00:50:00;95706.16;;;1.90;86.24
10832;BME280;5469;48.574;8.768;2023-01-31T00:52:37;95713.34;;;1.74;86.67
10832;BME280;5469;48.574;8.768;2023-01-31T00:55:12;95721.03;;;1.83;86.31
10832;BME280;5469;48.574;8.768;2023-01-31T00:57:48;95716.59;;;1.83;86.26
10832;BME280;5469;48.574;8.768;2023-01-31T01:00:23;95705.56;;;1.88;85.89
10832;BME280;5469;48.574;8.768;2023-01-31T01:02:58;95712.59;;;1.94;85.58
10832;BME280;5469;48.574;8.768;2023-01-31T01:05:33;95700.25;;;1.68;85.42
10832;BME280;5469;48.574;8.768;2023-01-31T01:08:10;95699.44;;;1.67;86.43
10832;BME280;5469;48.574;8.768;2023-01-31T01:10:45;95702.69;;;1.35;88.09
10832;BME280;5469;48.574;8.768;2023-01-31T01:13:21;95700.06;;;1.35;87.82
10832;BME280;5469;48.574;8.768;2023-01-31T01:15:56;95700.31;;;1.40;88.26
10832;BME280;5469;48.574;8.768;2023-01-31T01:18:31;95707.97;;;1.41;88.78
10832;BME280;5469;48.574;8.768;2023-01-31T01:21:09;95701.78;;;1.49;88.49
10832;BME280;5469;48.574;8.768;2023-01-31T01:23:46;95700.00;;;1.56;87.77
10832;BME280;5469;48.574;8.768;2023-01-31T01:26:23;95696.03;;;1.73;86.61
10832;BME280;5469;48.574;8.768;2023-01-31T01:29:00;95690.03;;;1.80;86.02
10832;BME280;5469;48.574;8.768;2023-01-31T01:31:38;95694.44;;;1.72;85.24
10832;BME280;5469;48.574;8.768;2023-01-31T01:34:15;95693.66;;;1.79;84.74
10832;BME280;5469;48.574;8.768;2023-01-31T01:36:50;95687.22;;;1.74;85.36
10832;BME280;5469;48.574;8.768;2023-01-31T01:39:27;95698.94;;;1.44;85.70
10832;BME280;5469;48.574;8.768;2023-01-31T01:42:03;95699.13;;;1.42;86.23
10832;BME280;5469;48.574;8.768;2023-01-31T01:44:49;95694.44;;;1.31;87.00
10832;BME280;5469;48.574;8.768;2023-01-31T01:47:36;95689.41;;;1.29;86.99
10832;BME280;5469;48.574;8.768;2023-01-31T01:50:14;95692.56;;;1.18;88.40
10832;BME280;5469;48.574;8.768;2023-01-31T01:52:53;95702.47;;;1.29;87.74
10832;BME280;5469;48.574;8.768;2023-01-31T01:55:34;95703.09;;;1.31;87.13
10832;BME280;5469;48.574;8.768;2023-01-31T01:58:13;95702.34;;;1.38;87.44
10832;BME280;5469;48.574;8.768;2023-01-31T02:00:50;95698.31;;;1.42;86.67
10832;BME280;5469;48.574;8.768;2023-01-31T02:03:27;95695.00;;;1.20;87.43
10832;BME280;5469;48.574;8.768;2023-01-31T02:06:05;95704.34;;;1.42;86.66
10832;BME280;5469;48.574;8.768;2023-01-31T02:08:42;95697.84;;;1.31;86.99
10832;BME280;5469;48.574;8.768;2023-01-31T02:11:25;95696.97;;;1.18;87.41
10832;BME280;5469;48.574;8.768;2023-01-31T02:14:02;95688.66;;;1.36;87.01
10832;BME280;5469;48.574;8.768;2023-01-31T02:16:39;95703.09;;;1.31;86.38
10832;BME280;5469;48.574;8.768;2023-01-31T02:19:23;95703.94;;;1.04;88.00
10832;BME280;5469;48.574;8.768;2023-01-31T02:22:14;95700.47;;;0.97;88.13
10832;BME280;5469;48.574;8.768;2023-01-31T02:25:12;95695.88;;;0.99;89.11
10832;BME280;5469;48.574;8.768;2023-01-31T02:28:17;95688.50;;;1.09;88.66
10832;BME280;5469;48.574;8.768;2023-01-31T02:31:30;95704.53;;;1.06;88.28
10832;BME280;5469;48.574;8.768;2023-01-31T02:34:20;95698.19;;;1.15;87.96
10832;BME280;5469;48.574;8.768;2023-01-31T02:37:04;95699.03;;;1.22;87.22
10832;BME280;5469;48.574;8.768;2023-01-31T02:39:52;95694.41;;;1.24;87.49
10832;BME280;5469;48.574;8.768;2023-01-31T02:42:37;95692.28;;;1.41;85.39
10832;BME280;5469;48.574;8.768;2023-01-31T02:45:26;95709.84;;;1.61;84.09
10832;BME280;5469;48.574;8.768;2023-01-31T02:48:07;95719.19;;;1.35;85.54
10832;BME280;5469;48.574;8.768;2023-01-31T02:50:56;95715.16;;;1.33;85.22
10832;BME280;5469;48.574;8.768;2023-01-31T02:53:35;95715.97;;;1.40;85.45
10832;BME280;5469;48.574;8.768;2023-01-31T02:56:12;95719.59;;;1.39;85.73
10832;BME280;5469;48.574;8.768;2023-01-31T02:58:57;95714.00;;;1.42;86.22
10832;BME280;5469;48.574;8.768;2023-01-31T03:01:34;95717.88;;;1.18;86.73
10832;BME280;5469;48.574;8.768;2023-01-31T03:04:12;95717.78;;;1.33;86.67
10832;BME280;5469;48.574;8.768;2023-01-31T03:06:58;95732.75;;;1.17;87.99
10832;BME280;5469;48.574;8.768;2023-01-31T03:09:44;95729.25;;;1.38;86.53
10832;BME280;5469;48.574;8.768;2023-01-31T03:12:40;95734.66;;;1.71;84.17
10832;BME280;5469;48.574;8.768;2023-01-31T03:15:28;95722.44;;;1.44;86.33
10832;BME280;5469;48.574;8.768;2023-01-31T03:18:25;95723.31;;;1.58;85.59
10832;BME280;5469;48.574;8.768;2023-01-31T03:21:07;95718.47;;;1.48;85.84
10832;BME280;5469;48.574;8.768;2023-01-31T03:23:48;95727.69;;;1.50;86.47
10832;BME280;5469;48.574;8.768;2023-01-31T03:26:30;95724.97;;;1.65;86.12
10832;BME280;5469;48.574;8.768;2023-01-31T03:29:06;95725.19;;;1.70;84.98
10832;BME280;5469;48.574;8.768;2023-01-31T03:31:46;95722.91;;;1.54;86.30
10832;BME280;5469;48.574;8.768;2023-01-31T03:34:23;95718.06;;;1.51;86.95
10832;BME280;5469;48.574;8.768;2023-01-31T03:37:02;95718.06;;;1.51;87.06
10832;BME280;5469;48.574;8.768;2023-01-31T03:39:45;95728.34;;;1.59;86.95
10832;BME280;5469;48.574;8.768;2023-01-31T03:42:27;95722.16;;;1.73;85.61
10832;BME280;5469;48.574;8.768;2023-01-31T03:45:08;95730.16;;;1.59;86.47
10832;BME280;5469;48.574;8.768;2023-01-31T03:47:48;95734.16;;;1.55;87.03
10832;BME280;5469;48.574;8.768;2023-01-31T03:50:25;95732.50;;;1.47;87.43
10832;BME280;5469;48.574;8.768;2023-01-31T03:53:08;95732.13;;;1.50;86.96
10832;BME280;5469;48.574;8.768;2023-01-31T03:55:51;95727.28;;;1.47;87.49
10832;BME280;5469;48.574;8.768;2023-01-31T03:58:33;95736.06;;;1.39;87.28
10832;BME280;5469;48.574;8.768;2023-01-31T04:01:11;95738.13;;;1.44;86.90
10832;BME280;5469;48.574;8.768;2023-01-31T04:03:53;95732.50;;;1.47;85.85
10832;BME280;5469;48.574;8.768;2023-01-31T04:06:29;95732.09;;;1.43;86.98
10832;BME280;5469;48.574;8.768;2023-01-31T04:09:05;95734.53;;;1.51;86.01
10832;BME280;5469;48.574;8.768;2023-01-31T04:11:48;95732.47;;;1.40;85.57
10832;BME280;5469;48.574;8.768;2023-01-31T04:14:23;95734.41;;;1.31;86.61
10832;BME280;5469;48.574;8.768;2023-01-31T04:16:58;95749.63;;;1.21;87.36
10832;BME280;5469;48.574;8.768;2023-01-31T04:19:33;95741.03;;;1.27;87.04
10832;BME280;5469;48.574;8.768;2023-01-31T04:22:08;95750.41;;;1.15;87.13
10832;BME280;5469;48.574;8.768;2023-01-31T04:24:43;95738.75;;;1.18;86.18
10832;BME280;5469;48.574;8.768;2023-01-31T04:27:19;95745.94;;;1.09;86.32
10832;BME280;5469;48.574;8.768;2023-01-31T04:29:54;95738.75;;;1.18;86.48
10832;BME280;5469;48.574;8.768;2023-01-31T04:32:29;95741.94;;;1.13;86.75
10832;BME280;5469;48.574;8.768;2023-01-31T04:35:05;95734.97;;;1.20;86.41
10832;BME280;5469;48.574;8.768;2023-01-31T04:37:40;95742.31;;;1.10;86.74
10832;BME280;5469;48.574;8.768;2023-01-31T04:40:16;95745.97;;;1.16;86.28
10832;BME280;5469;48.574;8.768;2023-01-31T04:42:53;95748.03;;;1.20;86.10
10832;BME280;5469;48.574;8.768;2023-01-31T04:45:28;95742.81;;;1.20;86.55
10832;BME280;5469;48.574;8.768;2023-01-31T04:48:03;95740.72;;;1.09;86.75
10832;BME280;5469;48.574;8.768;2023-01-31T04:50:38;95736.34;;;1.16;86.08
10832;BME280;5469;48.574;8.768;2023-01-31T04:53:13;95736.47;;;1.08;86.84
10832;BME280;5469;48.574;8.768;2023-01-31T04:55:48;95741.16;;;1.19;86.27
10832;BME280;5469;48.574;8.768;2023-01-31T04:58:24;95739.91;;;1.08;87.02
10832;BME280;5469;48.574;8.768;2023-01-31T05:01:04;95744.41;;;1.21;86.36
10832;BME280;5469;48.574;8.768;2023-01-31T05:03:39;95733.22;;;1.27;86.18
10832;BME280;5469;48.574;8.768;2023-01-31T05:06:15;95726.81;;;1.37;85.48
10832;BME280;5469;48.574;8.768;2023-01-31T05:08:50;95736.88;;;1.40;85.01
10832;BME280;5469;48.574;8.768;2023-01-31T05:11:27;95731.69;;;1.46;85.10
10832;BME280;5469;48.574;8.768;2023-01-31T05:14:03;95732.78;;;1.65;84.18
10832;BME280;5469;48.574;8.768;2023-01-31T05:16:39;95736.38;;;1.58;83.39
10832;BME280;5469;48.574;8.768;2023-01-31T05:19:17;95738.97;;;1.51;83.77
10832;BME280;5469;48.574;8.768;2023-01-31T05:21:52;95747.25;;;1.26;84.90
10832;BME280;5469;48.574;8.768;2023-01-31T05:24:33;95743.69;;;1.34;84.62
10832;BME280;5469;48.574;8.768;2023-01-31T05:27:11;95744.00;;;1.24;85.22
10832;BME280;5469;48.574;8.768;2023-01-31T05:29:48;95746.84;;;1.29;84.88
10832;BME280;5469;48.574;8.768;2023-01-31T05:32:23;95755.31;;;1.31;84.53
10832;BME280;5469;48.574;8.768;2023-01-31T05:34:58;95759.34;;;1.34;84.23
10832;BME280;5469;48.574;8.768;2023-01-31T05:37:33;95755.22;;;1.18;84.95
10832;BME280;5469;48.574;8.768;2023-01-31T05:40:11;95759.31;;;1.27;84.58
10832;BME280;5469;48.574;8.768;2023-01-31T05:42:48;95758.50;;;1.27;83.96
10832;BME280;5469;48.574;8.768;2023-01-31T05:45:25;95760.84;;;1.15;85.11
10832;BME280;5469;48.574;8.768;2023-01-31T05:48:00;95765.69;;;1.18;85.02
10832;BME280;5469;48.574;8.768;2023-01-31T05:50:35;95765.81;;;1.10;84.88
10832;BME280;5469;48.574;8.768;2023-01-31T05:53:11;95763.59;;;1.07;85.28
10832;BME280;5469;48.574;8.768;2023-01-31T05:55:48;95764.44;;;1.14;84.43
10832;BME280;5469;48.574;8.768;2023-01-31T05:58:23;95763.34;;;1.02;84.72
10832;BME280;5469;48.574;8.768;2023-01-31T06:00:59;95761.69;;;1.22;83.91
10832;BME280;5469;48.574;8.768;2023-01-31T06:03:34;95760.69;;;1.23;84.10
10832;BME280;5469;48.574;8.768;2023-01-31T06:06:09;95762.06;;;1.19;83.92
10832;BME280;5469;48.574;8.768;2023-01-31T06:08:45;95767.25;;;1.13;84.35
10832;BME280;5469;48.574;8.768;2023-01-31T06:11:21;95761.69;;;1.22;83.32
10832;BME280;5469;48.574;8.768;2023-01-31T06:13:57;95767.66;;;1.16;83.13
10832;BME280;5469;48.574;8.768;2023-01-31T06:16:34;95765.75;;;1.25;81.83
10832;BME280;5469;48.574;8.768;2023-01-31T06:19:09;95775.56;;;1.23;82.10
10832;BME280;5469;48.574;8.768;2023-01-31T06:21:44;95772.06;;;1.09;82.39
10832;BME280;5469;48.574;8.768;2023-01-31T06:24:19;95784.19;;;0.74;85.14
10832;BME280;5469;48.574;8.768;2023-01-31T06:26:55;95784.88;;;1.04;84.10
10832;BME280;5469;48.574;8.768;2023-01-31T06:29:31;95778.94;;;0.95;83.85
10832;BME280;5469;48.574;8.768;2023-01-31T06:32:07;95785.13;;;0.87;84.42
10832;BME280;5469;48.574;8.768;2023-01-31T06:34:42;95779.03;;;0.80;84.48
10832;BME280;5469;48.574;8.768;2023-01-31T06:37:17;95766.97;;;0.79;84.05
10832;BME280;5469;48.574;8.768;2023-01-31T06:39:52;95789.09;;;0.83;83.68
10832;BME280;5469;48.574;8.768;2023-01-31T06:42:27;95789.59;;;0.51;87.02
10832;BME280;5469;48.574;8.768;2023-01-31T06:45:02;95791.19;;;0.52;88.08
10832;BME280;5469;48.574;8.768;2023-01-31T06:47:39;95788.50;;;0.60;87.82
10832;BME280;5469;48.574;8.768;2023-01-31T06:50:14;95792.75;;;0.46;88.96
10832;BME280;5469;48.574;8.768;2023-01-31T06:52:49;95790.78;;;0.48;89.89
10832;BME280;5469;48.574;8.768;2023-01-31T06:55:24;95805.91;;;0.38;90.60
10832;BME280;5469;48.574;8.768;2023-01-31T06:57:59;95804.72;;;0.40;90.28
10832;BME280;5469;48.574;8.768;2023-01-31T07:00:34;95803.50;;;0.58;90.76
10832;BME280;5469;48.574;8.768;2023-01-31T07:03:11;95794.44;;;0.54;91.16
10832;BME280;5469;48.574;8.768;2023-01-31T07:05:49;95788.78;;;0.50;91.16
10832;BME280;5469;48.574;8.768;2023-01-31T07:08:24;95783.50;;;0.43;91.43
10832;BME280;5469;48.574;8.768;2023-01-31T07:10:59;95778.06;;;0.60;91.89
10832;BME280;5469;48.574;8.768;2023-01-31T07:13:35;95780.03;;;0.58;91.55
10832;BME280;5469;48.574;8.768;2023-01-31T07:16:10;95777.97;;;0.53;92.68
10832;BME280;5469;48.574;8.768;2023-01-31T07:18:46;95780.03;;;0.58;92.65
10832;BME280;5469;48.574;8.768;2023-01-31T07:21:22;95784.50;;;0.85;90.71
10832;BME280;5469;48.574;8.768;2023-01-31T07:23:58;95788.22;;;0.98;90.43
10832;BME280;5469;48.574;8.768;2023-01-31T07:26:45;95797.25;;;1.23;88.92
10832;BME280;5469;48.574;8.768;2023-01-31T07:29:21;95785.06;;;1.30;88.44
10832;BME280;5469;48.574;8.768;2023-01-31T07:31:56;95800.44;;;1.47;87.82
10832;BME280;5469;48.574;8.768;2023-01-31T07:34:33;95793.22;;;1.49;86.99
10832;BME280;5469;48.574;8.768;2023-01-31T07:37:07;95795.53;;;1.37;87.50
10832;BME280;5469;48.574;8.768;2023-01-31T07:39:42;95794.34;;;1.40;87.51
10832;BME280;5469;48.574;8.768;2023-01-31T07:42:17;95795.97;;;1.41;87.00
10832;BME280;5469;48.574;8.768;2023-01-31T07:44:52;95789.50;;;1.37;87.54
10832;BME280;5469;48.574;8.768;2023-01-31T07:47:27;95798.38;;;1.42;87.44
10832;BME280;5469;48.574;8.768;2023-01-31T07:50:04;95786.00;;;1.51;87.08
10832;BME280;5469;48.574;8.768;2023-01-31T07:52:39;95793.03;;;1.22;87.95
10832;BME280;5469;48.574;8.768;2023-01-31T07:55:14;95782.22;;;1.32;88.67
10832;BME280;5469;48.574;8.768;2023-01-31T07:57:49;95796.06;;;1.54;86.75
10832;BME280;5469;48.574;8.768;2023-01-31T08:00:22;95795.53;;;1.37;86.99
10832;BME280;5469;48.574;8.768;2023-01-31T08:03:25;95794.63;;;1.23;88.37
10832;BME280;5469;48.574;8.768;2023-01-31T08:06:10;95798.06;;;1.52;86.84
10832;BME280;5469;48.574;8.768;2023-01-31T08:08:47;95801.75;;;1.64;86.00
10832;BME280;5469;48.574;8.768;2023-01-31T08:11:23;95801.59;;;1.38;86.55
10832;BME280;5469;48.574;8.768;2023-01-31T08:13:58;95801.28;;;1.54;86.20
10832;BME280;5469;48.574;8.768;2023-01-31T08:16:33;95800.50;;;1.60;85.75
10832;BME280;5469;48.574;8.768;2023-01-31T08:19:09;95798.97;;;1.72;85.50
10832;BME280;5469;48.574;8.768;2023-01-31T08:21:45;95805.78;;;1.67;84.64
10832;BME280;5469;48.574;8.768;2023-01-31T08:24:20;95800.00;;;1.71;85.72
10832;BME280;5469;48.574;8.768;2023-01-31T08:26:55;95801.81;;;1.78;84.87
10832;BME280;5469;48.574;8.768;2023-01-31T08:29:30;95800.28;;;1.90;84.98
10832;BME280;5469;48.574;8.768;2023-01-31T08:32:06;95799.09;;;1.99;84.46
10832;BME280;5469;48.574;8.768;2023-01-31T08:34:41;95802.22;;;2.23;83.94
10832;BME280;5469;48.574;8.768;2023-01-31T08:37:17;95804.03;;;2.15;83.93
10832;BME280;5469;48.574;8.768;2023-01-31T08:39:52;95794.53;;;2.14;83.02
10832;BME280;5469;48.574;8.768;2023-01-31T08:42:27;95792.63;;;1.88;83.40
10832;BME280;5469;48.574;8.768;2023-01-31T08:45:02;95785.44;;;2.04;83.86
10832;BME280;5469;48.574;8.768;2023-01-31T08:47:37;95784.34;;;2.33;82.96
10832;BME280;5469;48.574;8.768;2023-01-31T08:50:12;95768.03;;;2.31;82.05
10832;BME280;5469;48.574;8.768;2023-01-31T08:52:53;95771.47;;;2.38;82.28
10832;BME280;5469;48.574;8.768;2023-01-31T08:55:30;95767.91;;;2.59;80.11
10832;BME280;5469;48.574;8.768;2023-01-31T08:58:05;95771.16;;;2.68;79.60
10832;BME280;5469;48.574;8.768;2023-01-31T09:00:40;95770.72;;;3.37;78.29
10832;BME280;5469;48.574;8.768;2023-01-31T09:03:17;95774.59;;;3.28;77.32
10832;BME280;5469;48.574;8.768;2023-01-31T09:05:53;95765.72;;;3.36;75.99
10832;BME280;5469;48.574;8.768;2023-01-31T09:08:30;95755.00;;;3.37;76.43
10832;BME280;5469;48.574;8.768;2023-01-31T09:11:06;95751.34;;;3.71;76.22
10832;BME280;5469;48.574;8.768;2023-01-31T09:13:41;95752.19;;;3.45;75.60
10832;BME280;5469;48.574;8.768;2023-01-31T09:16:17;95761.44;;;3.55;74.63
10832;BME280;5469;48.574;8.768;2023-01-31T09:18:54;95756.97;;;3.75;75.27
10832;BME280;5469;48.574;8.768;2023-01-31T09:21:29;95761.47;;;3.21;74.22
10832;BME280;5469;48.574;8.768;2023-01-31T09:24:08;95762.28;;;3.35;75.06
10832;BME280;5469;48.574;8.768;2023-01-31T09:26:44;95752.38;;;3.37;75.12
10832;BME280;5469;48.574;8.768;2023-01-31T09:29:19;95763.13;;;3.22;73.87
10832;BME280;5469;48.574;8.768;2023-01-31T09:31:55;95765.50;;;3.24;74.30
10832;BME280;5469;48.574;8.768;2023-01-31T09:34:31;95765.53;;;3.17;74.68
10832;BME280;5469;48.574;8.768;2023-01-31T09:37:06;95759.88;;;3.20;75.65
10832;BME280;5469;48.574;8.768;2023-01-31T09:39:42;95761.50;;;3.15;75.26
10832;BME280;5469;48.574;8.768;2023-01-31T09:42:21;95768.31;;;3.29;76.23
10832;BME280;5469;48.574;8.768;2023-01-31T09:45:01;95762.47;;;3.47;73.83
10832;BME280;5469;48.574;8.768;2023-01-31T09:47:40;95761.66;;;4.18;72.84
10832;BME280;5469;48.574;8.768;2023-01-31T09:50:21;95752.59;;;3.56;73.66
10832;BME280;5469;48.574;8.768;2023-01-31T09:52:58;95761.69;;;3.26;74.68
10832;BME280;5469;48.574;8.768;2023-01-31T09:55:39;95759.88;;;3.14;74.89
10832;BME280;5469;48.574;8.768;2023-01-31T09:58:22;95767.13;;;3.32;74.82
10832;BME280;5469;48.574;8.768;2023-01-31T10:01:10;95766.31;;;3.38;74.19
10832;BME280;5469;48.574;8.768;2023-01-31T10:03:53;95761.06;;;3.31;74.39
10832;BME280;5469;48.574;8.768;2023-01-31T10:06:39;95754.81;;;3.45;73.83
10832;BME280;5469;48.574;8.768;2023-01-31T10:09:22;95768.25;;;3.76;74.23
10832;BME280;5469;48.574;8.768;2023-01-31T10:12:06;95771.16;;;3.21;74.38
10832;BME280;5469;48.574;8.768;2023-01-31T10:14:46;95763.06;;;3.42;72.99
10832;BME280;5469;48.574;8.768;2023-01-31T10:17:26;95756.63;;;3.38;74.23
10832;BME280;5469;48.574;8.768;2023-01-31T10:20:12;95766.94;;;3.33;74.25
10832;BME280;5469;48.574;8.768;2023-01-31T10:22:54;95759.66;;;3.28;73.45
10832;BME280;5469;48.574;8.768;2023-01-31T10:25:33;95757.47;;;3.32;73.73
10832;BME280;5469;48.574;8.768;2023-01-31T10:28:15;95771.59;;;3.24;73.98
10832;BME280;5469;48.574;8.768;2023-01-31T10:30:57;95766.78;;;3.86;73.12
10832;BME280;5469;48.574;8.768;2023-01-31T10:33:41;95770.75;;;4.54;70.23
10832;BME280;5469;48.574;8.768;2023-01-31T10:36:22;95762.19;;;5.65;68.52
10832;BME280;5469;48.574;8.768;2023-01-31T10:39:04;95769.75;;;4.87;68.11
10832;BME280;5469;48.574;8.768;2023-01-31T10:41:46;95754.84;;;5.31;68.86
10832;BME280;5469;48.574;8.768;2023-01-31T10:44:30;95756.38;;;5.82;70.61
10832;BME280;5469;48.574;8.768;2023-01-31T10:47:11;95765.81;;;5.21;68.22
10832;BME280;5469;48.574;8.768;2023-01-31T10:49:48;95741.84;;;5.36;65.13
10832;BME280;5469;48.574;8.768;2023-01-31T10:52:34;95743.44;;;5.37;64.36
10832;BME280;5469;48.574;8.768;2023-01-31T10:55:30;95748.50;;;5.13;66.65
10832;BME280;5469;48.574;8.768;2023-01-31T10:58:12;95736.91;;;5.46;65.57
10832;BME280;5469;48.574;8.768;2023-01-31T11:00:50;95748.50;;;5.13;66.48
10832;BME280;5469;48.574;8.768;2023-01-31T11:03:26;95735.03;;;5.72;66.37
10832;BME280;5469;48.574;8.768;2023-01-31T11:06:01;95727.13;;;5.53;65.92
10832;BME280;5469;48.574;8.768;2023-01-31T11:08:41;95748.66;;;5.43;63.67
10832;BME280;5469;48.574;8.768;2023-01-31T11:11:20;95744.94;;;4.82;64.03
10832;BME280;5469;48.574;8.768;2023-01-31T11:14:00;95734.00;;;4.86;65.22
10832;BME280;5469;48.574;8.768;2023-01-31T11:16:39;95737.66;;;5.90;64.13
10832;BME280;5469;48.574;8.768;2023-01-31T11:19:21;95720.13;;;6.63;60.46
10832;BME280;5469;48.574;8.768;2023-01-31T11:21:59;95750.13;;;7.04;60.19
10832;BME280;5469;48.574;8.768;2023-01-31T11:24:36;95728.28;;;6.31;63.02
10832;BME280;5469;48.574;8.768;2023-01-31T11:27:22;95743.63;;;6.34;62.22
10832;BME280;5469;48.574;8.768;2023-01-31T11:29:59;95755.47;;;5.88;62.50
10832;BME280;5469;48.574;8.768;2023-01-31T11:32:38;95742.34;;;5.26;62.92
10832;BME280;5469;48.574;8.768;2023-01-31T11:35:24;95729.88;;;5.21;64.12
10832;BME280;5469;48.574;8.768;2023-01-31T11:38:01;95736.28;;;4.75;65.23
10832;BME280;5469;48.574;8.768;2023-01-31T11:40:38;95723.16;;;4.44;65.10
10832;BME280;5469;48.574;8.768;2023-01-31T11:43:25;95693.34;;;4.31;65.57
10832;BME280;5469;48.574;8.768;2023-01-31T11:46:02;95702.09;;;4.57;65.84
10832;BME280;5469;48.574;8.768;2023-01-31T11:48:41;95694.03;;;4.52;66.28
10832;BME280;5469;48.574;8.768;2023-01-31T11:51:28;95686.09;;;4.33;66.11
10832;BME280;5469;48.574;8.768;2023-01-31T11:54:06;95676.75;;;4.37;65.70
10832;BME280;5469;48.574;8.768;2023-01-31T11:56:41;95674.19;;;4.56;66.22
10832;BME280;5469;48.574;8.768;2023-01-31T11:59:21;95673.59;;;4.29;66.63
10832;BME280;5469;48.574;8.768;2023-01-31T12:02:00;95679.44;;;4.56;66.84
10832;BME280;5469;48.574;8.768;2023-01-31T12:04:42;95681.47;;;4.54;67.64
10832;BME280;5469;48.574;8.768;2023-01-31T12:07:26;95685.56;;;4.50;66.88
10832;BME280;5469;48.574;8.768;2023-01-31T12:10:04;95695.53;;;4.03;66.86
10832;BME280;5469;48.574;8.768;2023-01-31T12:13:00;95698.00;;;3.91;67.61
10832;BME280;5469;48.574;8.768;2023-01-31T12:15:35;95687.56;;;3.84;68.62
10832;BME280;5469;48.574;8.768;2023-01-31T12:18:11;95683.22;;;3.58;70.08
10832;BME280;5469;48.574;8.768;2023-01-31T12:20:56;95677.16;;;3.58;68.62
10832;BME280;5469;48.574;8.768;2023-01-31T12:23:41;95682.75;;;3.68;68.90
10832;BME280;5469;48.574;8.768;2023-01-31T12:26:23;95666.22;;;3.74;70.17
10832;BME280;5469;48.574;8.768;2023-01-31T12:29:12;95657.75;;;3.65;69.19
10832;BME280;5469;48.574;8.768;2023-01-31T12:32:03;95659.16;;;3.68;68.45
10832;BME280;5469;48.574;8.768;2023-01-31T12:34:58;95664.03;;;3.64;68.91
10832;BME280;5469;48.574;8.768;2023-01-31T12:37:45;95647.75;;;3.56;69.46
10832;BME280;5469;48.574;8.768;2023-01-31T12:40:32;95651.34;;;3.55;69.32
10832;BME280;5469;48.574;8.768;2023-01-31T12:43:20;95656.41;;;3.49;70.22
10832;BME280;5469;48.574;8.768;2023-01-31T12:46:04;95659.81;;;3.63;69.15
10832;BME280;5469;48.574;8.768;2023-01-31T12:52:01;95654.63;;;3.43;69.62
10832;BME280;5469;48.574;8.768;2023-01-31T12:54:49;95642.50;;;3.49;70.89
10832;BME280;5469;48.574;8.768;2023-01-31T12:57:34;95634.66;;;3.42;70.22
10832;BME280;5469;48.574;8.768;2023-01-31T13:00:22;95627.94;;;3.60;70.79
10832;BME280;5469;48.574;8.768;2023-01-31T13:03:25;95626.78;;;3.56;71.10
10832;BME280;5469;48.574;8.768;2023-01-31T13:06:09;95613.16;;;3.27;70.82
10832;BME280;5469;48.574;8.768;2023-01-31T13:08:51;95616.38;;;3.29;71.06
10832;BME280;5469;48.574;8.768;2023-01-31T13:11:34;95629.94;;;3.06;71.59
10832;BME280;5469;48.574;8.768;2023-01-31T13:14:16;95607.56;;;3.10;71.86
10832;BME280;5469;48.574;8.768;2023-01-31T13:16:57;95590.22;;;3.16;71.30
10832;BME280;5469;48.574;8.768;2023-01-31T13:19:37;95581.63;;;3.47;71.11
10832;BME280;5469;48.574;8.768;2023-01-31T13:22:16;95576.50;;;3.20;71.84
10832;BME280;5469;48.574;8.768;2023-01-31T13:25:04;95590.16;;;3.29;71.10
10832;BME280;5469;48.574;8.768;2023-01-31T13:27:51;95570.00;;;3.36;72.20
10832;BME280;5469;48.574;8.768;2023-01-31T13:30:38;95579.69;;;3.29;72.09
10832;BME280;5469;48.574;8.768;2023-01-31T13:33:20;95588.66;;;3.01;71.94
10832;BME280;5469;48.574;8.768;2023-01-31T13:36:02;95598.50;;;3.13;72.01
10832;BME280;5469;48.574;8.768;2023-01-31T13:38:43;95579.63;;;2.84;73.01
10832;BME280;5469;48.574;8.768;2023-01-31T13:41:21;95574.19;;;2.92;72.93
10832;BME280;5469;48.574;8.768;2023-01-31T13:44:07;95564.81;;;3.23;72.25
10832;BME280;5469;48.574;8.768;2023-01-31T13:46:52;95553.91;;;3.33;72.42
10832;BME280;5469;48.574;8.768;2023-01-31T13:49:34;95542.66;;;3.19;72.37
10832;BME280;5469;48.574;8.768;2023-01-31T13:52:15;95545.50;;;3.11;71.81
10832;BME280;5469;48.574;8.768;2023-01-31T13:54:54;95552.25;;;3.38;72.03
10832;BME280;5469;48.574;8.768;2023-01-31T13:57:33;95552.75;;;3.22;72.20
10832;BME280;5469;48.574;8.768;2023-01-31T14:00:30;95562.97;;;3.30;71.93
10832;BME280;5469;48.574;8.768;2023-01-31T14:03:09;95568.31;;;3.48;71.97
10832;BME280;5469;48.574;8.768;2023-01-31T14:05:58;95579.97;;;3.53;72.31
10832;BME280;5469;48.574;8.768;2023-01-31T14:08:56;95589.22;;;3.62;71.22
10832;BME280;5469;48.574;8.768;2023-01-31T14:11:33;95598.13;;;3.61;71.36
10832;BME280;5469;48.574;8.768;2023-01-31T14:14:22;95576.13;;;3.93;71.33
10832;BME280;5469;48.574;8.768;2023-01-31T14:17:03;95579.97;;;3.91;70.54
10832;BME280;5469;48.574;8.768;2023-01-31T14:20:02;95574.53;;;3.92;70.48
10832;BME280;5469;48.574;8.768;2023-01-31T14:22:40;95585.06;;;3.86;71.24
10832;BME280;5469;48.574;8.768;2023-01-31T14:25:16;95579.44;;;3.82;70.93
10832;BME280;5469;48.574;8.768;2023-01-31T14:28:11;95564.13;;;3.79;70.65
10832;BME280;5469;48.574;8.768;2023-01-31T14:30:47;95563.09;;;3.48;70.69